sensor_id;sensor_type;location;lat;lon;timestamp;temperature;humidity
17887;DHT22;9069;52.044;7.472;2023-04-06T00:00:35;8.10;61.00
17887;DHT22;9069;52.044;7.472;2023-04-06T00:03:02;8.10;60.90
17887;DHT22;9069;52.044;7.472;2023-04-06T00:05:29;8.00;60.80
17887;DHT22;9069;52.044;7.472;2023-04-06T00:07:58;8.00;60.90
17887;DHT22;9069;52.044;7.472;2023-04-06T00:10:25;8.00;60.90
17887;DHT22;9069;52.044;7.472;2023-04-06T00:12:52;8.00;61.00
17887;DHT22;9069;52.044;7.472;2023-04-06T00:15:19;8.00;61.10
17887;DHT22;9069;52.044;7.472;2023-04-06T00:17:46;7.90;61.20
17887;DHT22;9069;52.044;7.472;2023-04-06T00:20:13;7.90;61.10
17887;DHT22;9069;52.044;7.472;2023-04-06T00:22:40;7.90;61.10
17887;DHT22;9069;52.044;7.472;2023-04-06T00:25:07;7.90;61.20
17887;DHT22;9069;52.044;7.472;2023-04-06T00:27:34;7.80;61.20
17887;DHT22;9069;52.044;7.472;2023-04-06T00:30:01;7.80;61.20
17887;DHT22;9069;52.044;7.472;2023-04-06T00:32:27;7.80;61.40
17887;DHT22;9069;52.044;7.472;2023-04-06T00:34:54;7.80;61.40
17887;DHT22;9069;52.044;7.472;2023-04-06T00:37:21;7.70;61.20
17887;DHT22;9069;52.044;7.472;2023-04-06T00:39:48;7.70;61.20
17887;DHT22;9069;52.044;7.472;2023-04-06T00:42:15;7.70;61.20
17887;DHT22;9069;52.044;7.472;2023-04-06T00:44:42;7.70;61.20
17887;DHT22;9069;52.044;7.472;2023-04-06T00:47:09;7.70;61.20
17887;DHT22;9069;52.044;7.472;2023-04-06T00:49:36;7.60;61.20
17887;DHT22;9069;52.044;7.472;2023-04-06T00:52:02;7.60;61.30
17887;DHT22;9069;52.044;7.472;2023-04-06T00:54:29;7.60;61.40
17887;DHT22;9069;52.044;7.472;2023-04-06T00:56:58;7.60;61.50
17887;DHT22;9069;52.044;7.472;2023-04-06T00:59:28;7.50;61.50
17887;DHT22;9069;52.044;7.472;2023-04-06T01:01:56;7.60;61.60
17887;DHT22;9069;52.044;7.472;2023-04-06T01:04:32;7.50;61.60
17887;DHT22;9069;52.044;7.472;2023-04-06T01:07:01;7.50;61.70
17887;DHT22;9069;52.044;7.472;2023-04-06T01:09:36;7.50;61.80
17887;DHT22;9069;52.044;7.472;2023-04-06T01:12:10;7.40;61.80
17887;DHT22;9069;52.044;7.472;2023-04-06T01:14:37;7.40;61.90
17887;DHT22;9069;52.044;7.472;2023-04-06T01:17:03;7.40;62.00
17887;DHT22;9069;52.044;7.472;2023-04-06T01:19:32;7.30;61.90
17887;DHT22;9069;52.044;7.472;2023-04-06T01:22:00;7.30;61.90
17887;DHT22;9069;52.044;7.472;2023-04-06T01:24:29;7.30;62.00
17887;DHT22;9069;52.044;7.472;2023-04-06T01:27:06;7.20;62.00
17887;DHT22;9069;52.044;7.472;2023-04-06T01:29:51;7.20;62.00
17887;DHT22;9069;52.044;7.472;2023-04-06T01:32:35;7.20;62.00
17887;DHT22;9069;52.044;7.472;2023-04-06T01:35:02;7.10;62.10
17887;DHT22;9069;52.044;7.472;2023-04-06T01:37:33;7.10;62.20
17887;DHT22;9069;52.044;7.472;2023-04-06T01:40:03;7.00;62.30
17887;DHT22;9069;52.044;7.472;2023-04-06T01:42:43;7.00;62.40
17887;DHT22;9069;52.044;7.472;2023-04-06T01:45:14;7.00;62.50
17887;DHT22;9069;52.044;7.472;2023-04-06T01:47:42;6.90;62.50
17887;DHT22;9069;52.044;7.472;2023-04-06T01:50:10;6.90;62.70
17887;DHT22;9069;52.044;7.472;2023-04-06T01:52:41;6.90;62.80
17887;DHT22;9069;52.044;7.472;2023-04-06T01:55:09;6.90;62.90
17887;DHT22;9069;52.044;7.472;2023-04-06T01:57:56;6.90;62.90
17887;DHT22;9069;52.044;7.472;2023-04-06T02:00:32;6.90;63.00
17887;DHT22;9069;52.044;7.472;2023-04-06T02:02:59;6.80;63.00
17887;DHT22;9069;52.044;7.472;2023-04-06T02:05:30;6.80;63.10
17887;DHT22;9069;52.044;7.472;2023-04-06T02:07:58;6.80;63.20
17887;DHT22;9069;52.044;7.472;2023-04-06T02:10:32;6.80;63.20
17887;DHT22;9069;52.044;7.472;2023-04-06T02:13:04;6.80;63.20
17887;DHT22;9069;52.044;7.472;2023-04-06T02:15:30;6.80;63.30
17887;DHT22;9069;52.044;7.472;2023-04-06T02:17:59;6.70;63.30
17887;DHT22;9069;52.044;7.472;2023-04-06T02:20:25;6.70;63.30
17887;DHT22;9069;52.044;7.472;2023-04-06T02:22:52;6.70;63.30
17887;DHT22;9069;52.044;7.472;2023-04-06T02:25:19;6.70;63.40
17887;DHT22;9069;52.044;7.472;2023-04-06T02:27:46;6.60;63.40
17887;DHT22;9069;52.044;7.472;2023-04-06T02:30:13;6.60;63.40
17887;DHT22;9069;52.044;7.472;2023-04-06T02:32:39;6.60;63.50
17887;DHT22;9069;52.044;7.472;2023-04-06T02:35:07;6.50;63.50
17887;DHT22;9069;52.044;7.472;2023-04-06T02:37:34;6.50;63.60
17887;DHT22;9069;52.044;7.472;2023-04-06T02:40:01;6.50;63.70
17887;DHT22;9069;52.044;7.472;2023-04-06T02:42:29;6.50;63.80
17887;DHT22;9069;52.044;7.472;2023-04-06T02:44:58;6.40;63.80
17887;DHT22;9069;52.044;7.472;2023-04-06T02:47:30;6.40;63.80
17887;DHT22;9069;52.044;7.472;2023-04-06T02:49:57;6.40;63.90
17887;DHT22;9069;52.044;7.472;2023-04-06T02:52:24;6.40;64.00
17887;DHT22;9069;52.044;7.472;2023-04-06T02:54:51;6.30;63.90
17887;DHT22;9069;52.044;7.472;2023-04-06T02:57:24;6.30;63.90
17887;DHT22;9069;52.044;7.472;2023-04-06T02:59:51;6.30;64.10
17887;DHT22;9069;52.044;7.472;2023-04-06T03:02:23;6.30;64.20
17887;DHT22;9069;52.044;7.472;2023-04-06T03:04:54;6.30;64.20
17887;DHT22;9069;52.044;7.472;2023-04-06T03:07:28;6.30;64.30
17887;DHT22;9069;52.044;7.472;2023-04-06T03:09:55;6.30;64.30
17887;DHT22;9069;52.044;7.472;2023-04-06T03:12:21;6.20;64.30
17887;DHT22;9069;52.044;7.472;2023-04-06T03:15:07;6.20;64.40
17887;DHT22;9069;52.044;7.472;2023-04-06T03:17:35;6.10;64.40
17887;DHT22;9069;52.044;7.472;2023-04-06T03:20:07;6.20;64.50
17887;DHT22;9069;52.044;7.472;2023-04-06T03:22:34;6.10;64.50
17887;DHT22;9069;52.044;7.472;2023-04-06T03:25:01;6.10;64.60
17887;DHT22;9069;52.044;7.472;2023-04-06T03:27:31;6.00;64.60
17887;DHT22;9069;52.044;7.472;2023-04-06T03:29:58;6.00;64.70
17887;DHT22;9069;52.044;7.472;2023-04-06T03:32:31;6.00;64.70
17887;DHT22;9069;52.044;7.472;2023-04-06T03:34:57;6.00;64.90
17887;DHT22;9069;52.044;7.472;2023-04-06T03:37:24;6.00;64.90
17887;DHT22;9069;52.044;7.472;2023-04-06T03:39:55;5.90;65.00
17887;DHT22;9069;52.044;7.472;2023-04-06T03:42:24;5.90;65.00
17887;DHT22;9069;52.044;7.472;2023-04-06T03:44:55;5.80;65.00
17887;DHT22;9069;52.044;7.472;2023-04-06T03:47:22;5.80;65.10
17887;DHT22;9069;52.044;7.472;2023-04-06T03:49:50;5.80;65.20
17887;DHT22;9069;52.044;7.472;2023-04-06T03:52:17;5.80;65.30
17887;DHT22;9069;52.044;7.472;2023-04-06T03:54:44;5.70;65.30
17887;DHT22;9069;52.044;7.472;2023-04-06T03:57:11;5.70;65.40
17887;DHT22;9069;52.044;7.472;2023-04-06T03:59:37;5.60;65.50
17887;DHT22;9069;52.044;7.472;2023-04-06T04:02:04;5.60;65.50
17887;DHT22;9069;52.044;7.472;2023-04-06T04:04:31;5.50;65.70
17887;DHT22;9069;52.044;7.472;2023-04-06T04:06:58;5.50;65.80
17887;DHT22;9069;52.044;7.472;2023-04-06T04:09:25;5.40;65.80
17887;DHT22;9069;52.044;7.472;2023-04-06T04:11:55;5.40;65.90
17887;DHT22;9069;52.044;7.472;2023-04-06T04:14:22;5.40;66.10
17887;DHT22;9069;52.044;7.472;2023-04-06T04:16:49;5.30;66.10
17887;DHT22;9069;52.044;7.472;2023-04-06T04:19:17;5.30;66.20
17887;DHT22;9069;52.044;7.472;2023-04-06T04:21:45;5.20;66.30
17887;DHT22;9069;52.044;7.472;2023-04-06T04:24:15;5.20;66.40
17887;DHT22;9069;52.044;7.472;2023-04-06T04:26:42;5.20;66.50
17887;DHT22;9069;52.044;7.472;2023-04-06T04:29:09;5.20;66.60
17887;DHT22;9069;52.044;7.472;2023-04-06T04:31:37;5.20;66.80
17887;DHT22;9069;52.044;7.472;2023-04-06T04:34:11;4.90;66.80
17887;DHT22;9069;52.044;7.472;2023-04-06T04:36:38;5.10;67.00
17887;DHT22;9069;52.044;7.472;2023-04-06T04:39:08;5.10;67.10
17887;DHT22;9069;52.044;7.472;2023-04-06T04:41:39;5.10;67.10
17887;DHT22;9069;52.044;7.472;2023-04-06T04:44:09;5.10;67.20
17887;DHT22;9069;52.044;7.472;2023-04-06T04:46:35;5.10;67.30
17887;DHT22;9069;52.044;7.472;2023-04-06T04:49:03;5.10;67.40
17887;DHT22;9069;52.044;7.472;2023-04-06T04:51:31;5.20;67.60
17887;DHT22;9069;52.044;7.472;2023-04-06T04:54:07;5.20;68.50
17887;DHT22;9069;52.044;7.472;2023-04-06T04:56:33;5.20;67.80
17887;DHT22;9069;52.044;7.472;2023-04-06T04:59:13;5.20;67.80
17887;DHT22;9069;52.044;7.472;2023-04-06T05:01:47;5.20;67.80
17887;DHT22;9069;52.044;7.472;2023-04-06T05:04:26;5.20;67.90
17887;DHT22;9069;52.044;7.472;2023-04-06T05:07:05;5.20;68.10
17887;DHT22;9069;52.044;7.472;2023-04-06T05:09:33;5.20;68.20
17887;DHT22;9069;52.044;7.472;2023-04-06T05:12:00;5.20;68.10
17887;DHT22;9069;52.044;7.472;2023-04-06T05:14:31;5.20;68.20
17887;DHT22;9069;52.044;7.472;2023-04-06T05:16:59;5.20;68.30
17887;DHT22;9069;52.044;7.472;2023-04-06T05:19:26;5.20;68.30
17887;DHT22;9069;52.044;7.472;2023-04-06T05:21:53;5.20;68.00
17887;DHT22;9069;52.044;7.472;2023-04-06T05:24:20;5.20;68.20
17887;DHT22;9069;52.044;7.472;2023-04-06T05:26:48;5.20;68.20
17887;DHT22;9069;52.044;7.472;2023-04-06T05:29:21;5.20;68.20
17887;DHT22;9069;52.044;7.472;2023-04-06T05:31:48;5.20;68.20
17887;DHT22;9069;52.044;7.472;2023-04-06T05:34:15;5.20;68.30
17887;DHT22;9069;52.044;7.472;2023-04-06T05:36:42;5.20;68.30
17887;DHT22;9069;52.044;7.472;2023-04-06T05:39:17;5.20;68.20
17887;DHT22;9069;52.044;7.472;2023-04-06T05:41:48;5.20;68.20
17887;DHT22;9069;52.044;7.472;2023-04-06T05:44:21;5.20;68.30
17887;DHT22;9069;52.044;7.472;2023-04-06T05:46:57;5.20;68.40
17887;DHT22;9069;52.044;7.472;2023-04-06T05:49:24;5.20;68.50
17887;DHT22;9069;52.044;7.472;2023-04-06T05:51:52;5.10;68.60
17887;DHT22;9069;52.044;7.472;2023-04-06T05:54:19;5.10;68.70
17887;DHT22;9069;52.044;7.472;2023-04-06T05:56:46;5.10;68.80
17887;DHT22;9069;52.044;7.472;2023-04-06T05:59:14;5.10;68.80
17887;DHT22;9069;52.044;7.472;2023-04-06T06:01:43;5.10;69.00
17887;DHT22;9069;52.044;7.472;2023-04-06T06:04:12;5.20;69.40
17887;DHT22;9069;52.044;7.472;2023-04-06T06:06:39;5.20;69.50
17887;DHT22;9069;52.044;7.472;2023-04-06T06:09:14;5.20;69.60
17887;DHT22;9069;52.044;7.472;2023-04-06T06:11:49;5.30;69.80
17887;DHT22;9069;52.044;7.472;2023-04-06T06:14:18;5.30;69.80
17887;DHT22;9069;52.044;7.472;2023-04-06T06:16:45;5.40;70.00
17887;DHT22;9069;52.044;7.472;2023-04-06T06:19:14;5.40;70.10
17887;DHT22;9069;52.044;7.472;2023-04-06T06:21:43;5.50;70.20
17887;DHT22;9069;52.044;7.472;2023-04-06T06:24:09;5.60;70.30
17887;DHT22;9069;52.044;7.472;2023-04-06T06:26:36;5.60;70.40
17887;DHT22;9069;52.044;7.472;2023-04-06T06:29:04;5.70;70.50
17887;DHT22;9069;52.044;7.472;2023-04-06T06:31:33;5.80;70.50
17887;DHT22;9069;52.044;7.472;2023-04-06T06:34:00;5.90;70.60
17887;DHT22;9069;52.044;7.472;2023-04-06T06:36:31;6.00;70.60
17887;DHT22;9069;52.044;7.472;2023-04-06T06:38:59;6.20;70.70
17887;DHT22;9069;52.044;7.472;2023-04-06T06:41:27;6.30;70.80
17887;DHT22;9069;52.044;7.472;2023-04-06T06:43:54;6.50;71.00
17887;DHT22;9069;52.044;7.472;2023-04-06T06:46:21;6.60;71.10
17887;DHT22;9069;52.044;7.472;2023-04-06T06:48:48;6.80;71.20
17887;DHT22;9069;52.044;7.472;2023-04-06T06:51:14;7.10;71.40
17887;DHT22;9069;52.044;7.472;2023-04-06T06:53:41;7.30;71.50
17887;DHT22;9069;52.044;7.472;2023-04-06T06:56:08;7.50;71.50
17887;DHT22;9069;52.044;7.472;2023-04-06T06:58:34;7.80;71.50
17887;DHT22;9069;52.044;7.472;2023-04-06T07:01:01;8.00;71.30
17887;DHT22;9069;52.044;7.472;2023-04-06T07:09:21;8.90;70.10
17887;DHT22;9069;52.044;7.472;2023-04-06T07:11:48;9.30;70.70
17887;DHT22;9069;52.044;7.472;2023-04-06T07:14:16;9.60;70.60
17887;DHT22;9069;52.044;7.472;2023-04-06T07:16:43;9.90;70.40
17887;DHT22;9069;52.044;7.472;2023-04-06T07:19:11;10.20;70.30
17887;DHT22;9069;52.044;7.472;2023-04-06T07:21:38;10.60;70.40
17887;DHT22;9069;52.044;7.472;2023-04-06T07:24:05;11.00;70.40
17887;DHT22;9069;52.044;7.472;2023-04-06T07:26:32;11.40;70.90
17887;DHT22;9069;52.044;7.472;2023-04-06T07:28:59;11.80;69.80
17887;DHT22;9069;52.044;7.472;2023-04-06T07:31:26;12.30;69.50
17887;DHT22;9069;52.044;7.472;2023-04-06T07:33:53;12.70;68.60
17887;DHT22;9069;52.044;7.472;2023-04-06T07:36:20;13.20;68.10
17887;DHT22;9069;52.044;7.472;2023-04-06T07:38:47;13.60;67.40
17887;DHT22;9069;52.044;7.472;2023-04-06T07:41:15;13.90;67.10
17887;DHT22;9069;52.044;7.472;2023-04-06T07:43:43;14.30;66.60
17887;DHT22;9069;52.044;7.472;2023-04-06T07:46:10;14.60;65.70
17887;DHT22;9069;52.044;7.472;2023-04-06T07:48:37;14.90;65.30
17887;DHT22;9069;52.044;7.472;2023-04-06T07:51:05;15.20;65.00
17887;DHT22;9069;52.044;7.472;2023-04-06T07:53:36;15.50;64.60
17887;DHT22;9069;52.044;7.472;2023-04-06T07:56:03;15.80;64.60
17887;DHT22;9069;52.044;7.472;2023-04-06T07:58:30;16.10;64.20
17887;DHT22;9069;52.044;7.472;2023-04-06T08:00:56;16.40;64.10
17887;DHT22;9069;52.044;7.472;2023-04-06T08:03:24;16.70;63.80
17887;DHT22;9069;52.044;7.472;2023-04-06T08:05:52;17.10;63.20
17887;DHT22;9069;52.044;7.472;2023-04-06T08:08:19;17.30;62.70
17887;DHT22;9069;52.044;7.472;2023-04-06T08:10:48;17.70;62.40
17887;DHT22;9069;52.044;7.472;2023-04-06T08:13:15;18.00;62.20
17887;DHT22;9069;52.044;7.472;2023-04-06T08:15:42;18.30;61.60
17887;DHT22;9069;52.044;7.472;2023-04-06T08:18:09;18.60;60.90
17887;DHT22;9069;52.044;7.472;2023-04-06T08:20:36;18.90;60.30
17887;DHT22;9069;52.044;7.472;2023-04-06T08:23:02;19.20;59.60
17887;DHT22;9069;52.044;7.472;2023-04-06T08:25:29;19.50;59.20
17887;DHT22;9069;52.044;7.472;2023-04-06T08:27:56;19.80;59.00
17887;DHT22;9069;52.044;7.472;2023-04-06T08:30:23;20.10;58.90
17887;DHT22;9069;52.044;7.472;2023-04-06T08:32:49;20.40;58.50
17887;DHT22;9069;52.044;7.472;2023-04-06T08:35:16;20.80;58.40
17887;DHT22;9069;52.044;7.472;2023-04-06T08:37:43;21.10;57.60
17887;DHT22;9069;52.044;7.472;2023-04-06T08:40:11;21.40;56.80
17887;DHT22;9069;52.044;7.472;2023-04-06T08:42:44;21.70;56.40
17887;DHT22;9069;52.044;7.472;2023-04-06T08:45:13;22.00;54.50
17887;DHT22;9069;52.044;7.472;2023-04-06T08:47:40;22.30;55.10
17887;DHT22;9069;52.044;7.472;2023-04-06T08:50:08;22.50;55.00
17887;DHT22;9069;52.044;7.472;2023-04-06T08:52:35;22.80;54.70
17887;DHT22;9069;52.044;7.472;2023-04-06T08:55:03;23.00;54.20
17887;DHT22;9069;52.044;7.472;2023-04-06T08:57:31;23.20;54.00
17887;DHT22;9069;52.044;7.472;2023-04-06T09:00:00;23.50;52.80
17887;DHT22;9069;52.044;7.472;2023-04-06T09:14:39;24.20;50.60
17887;DHT22;9069;52.044;7.472;2023-04-06T09:17:06;24.20;51.40
17887;DHT22;9069;52.044;7.472;2023-04-06T09:19:33;24.30;51.20
17887;DHT22;9069;52.044;7.472;2023-04-06T09:22:04;24.40;51.00
17887;DHT22;9069;52.044;7.472;2023-04-06T09:24:47;24.40;49.70
17887;DHT22;9069;52.044;7.472;2023-04-06T09:27:15;24.50;48.60
17887;DHT22;9069;52.044;7.472;2023-04-06T09:29:43;24.60;50.00
17887;DHT22;9069;52.044;7.472;2023-04-06T09:32:11;24.60;49.90
17887;DHT22;9069;52.044;7.472;2023-04-06T09:34:39;24.70;49.20
17887;DHT22;9069;52.044;7.472;2023-04-06T09:37:15;24.80;49.00
17887;DHT22;9069;52.044;7.472;2023-04-06T09:39:42;24.90;47.80
17887;DHT22;9069;52.044;7.472;2023-04-06T09:42:09;25.00;49.00
17887;DHT22;9069;52.044;7.472;2023-04-06T09:44:36;25.20;48.70
17887;DHT22;9069;52.044;7.472;2023-04-06T09:47:06;25.20;48.80
17887;DHT22;9069;52.044;7.472;2023-04-06T09:49:34;25.30;47.70
17887;DHT22;9069;52.044;7.472;2023-04-06T09:52:03;25.40;48.30
17887;DHT22;9069;52.044;7.472;2023-04-06T09:54:34;25.50;48.10
17887;DHT22;9069;52.044;7.472;2023-04-06T09:57:07;25.60;47.50
17887;DHT22;9069;52.044;7.472;2023-04-06T10:02:10;26.00;47.80
17887;DHT22;9069;52.044;7.472;2023-04-06T10:04:43;26.10;46.90
17887;DHT22;9069;52.044;7.472;2023-04-06T10:07:10;26.20;46.80
17887;DHT22;9069;52.044;7.472;2023-04-06T10:09:44;26.30;46.70
17887;DHT22;9069;52.044;7.472;2023-04-06T10:12:13;26.50;45.90
17887;DHT22;9069;52.044;7.472;2023-04-06T10:14:39;26.60;46.50
17887;DHT22;9069;52.044;7.472;2023-04-06T10:17:07;26.70;45.10
17887;DHT22;9069;52.044;7.472;2023-04-06T10:19:47;26.80;44.60
17887;DHT22;9069;52.044;7.472;2023-04-06T10:22:26;26.90;42.90
17887;DHT22;9069;52.044;7.472;2023-04-06T10:24:55;26.90;43.60
17887;DHT22;9069;52.044;7.472;2023-04-06T10:27:29;27.00;45.10
17887;DHT22;9069;52.044;7.472;2023-04-06T10:30:03;27.10;44.00
17887;DHT22;9069;52.044;7.472;2023-04-06T10:35:11;27.10;43.40
17887;DHT22;9069;52.044;7.472;2023-04-06T10:37:49;27.10;42.30
17887;DHT22;9069;52.044;7.472;2023-04-06T10:40:25;27.00;42.20
17887;DHT22;9069;52.044;7.472;2023-04-06T10:42:53;26.80;42.40
17887;DHT22;9069;52.044;7.472;2023-04-06T10:45:24;26.60;42.50
17887;DHT22;9069;52.044;7.472;2023-04-06T10:47:55;26.40;41.40
17887;DHT22;9069;52.044;7.472;2023-04-06T10:50:22;26.20;41.30
17887;DHT22;9069;52.044;7.472;2023-04-06T10:53:02;26.00;41.80
17887;DHT22;9069;52.044;7.472;2023-04-06T10:55:29;25.70;40.70
17887;DHT22;9069;52.044;7.472;2023-04-06T10:57:57;25.50;41.80
17887;DHT22;9069;52.044;7.472;2023-04-06T11:00:24;25.30;41.90
17887;DHT22;9069;52.044;7.472;2023-04-06T11:03:05;25.10;41.70
17887;DHT22;9069;52.044;7.472;2023-04-06T11:05:31;24.90;41.50
17887;DHT22;9069;52.044;7.472;2023-04-06T11:07:58;24.70;41.80
17887;DHT22;9069;52.044;7.472;2023-04-06T11:10:25;24.50;42.00
17887;DHT22;9069;52.044;7.472;2023-04-06T11:12:55;24.30;42.10
17887;DHT22;9069;52.044;7.472;2023-04-06T11:15:23;24.10;41.40
17887;DHT22;9069;52.044;7.472;2023-04-06T11:17:49;24.00;42.30
17887;DHT22;9069;52.044;7.472;2023-04-06T11:20:16;23.80;42.30
17887;DHT22;9069;52.044;7.472;2023-04-06T11:22:53;23.70;42.60
17887;DHT22;9069;52.044;7.472;2023-04-06T11:25:19;23.50;42.00
17887;DHT22;9069;52.044;7.472;2023-04-06T11:27:47;23.40;42.50
17887;DHT22;9069;52.044;7.472;2023-04-06T11:30:14;23.30;42.60
17887;DHT22;9069;52.044;7.472;2023-04-06T11:32:42;23.20;43.10
17887;DHT22;9069;52.044;7.472;2023-04-06T11:35:23;23.10;43.10
17887;DHT22;9069;52.044;7.472;2023-04-06T11:37:50;23.00;42.40
17887;DHT22;9069;52.044;7.472;2023-04-06T11:40:21;22.90;43.40
17887;DHT22;9069;52.044;7.472;2023-04-06T11:42:52;22.90;43.20
17887;DHT22;9069;52.044;7.472;2023-04-06T11:45:19;22.80;43.20
17887;DHT22;9069;52.044;7.472;2023-04-06T11:47:58;22.70;43.50
17887;DHT22;9069;52.044;7.472;2023-04-06T11:50:32;22.60;42.60
17887;DHT22;9069;52.044;7.472;2023-04-06T11:53:01;22.50;43.20
17887;DHT22;9069;52.044;7.472;2023-04-06T11:55:28;22.40;43.60
17887;DHT22;9069;52.044;7.472;2023-04-06T11:57:56;22.40;43.50
17887;DHT22;9069;52.044;7.472;2023-04-06T12:00:23;22.30;43.90
17887;DHT22;9069;52.044;7.472;2023-04-06T12:02:50;22.20;44.10
17887;DHT22;9069;52.044;7.472;2023-04-06T12:05:17;22.10;44.40
17887;DHT22;9069;52.044;7.472;2023-04-06T12:07:44;22.00;44.30
17887;DHT22;9069;52.044;7.472;2023-04-06T12:10:10;22.00;44.40
17887;DHT22;9069;52.044;7.472;2023-04-06T12:12:37;21.90;44.50
17887;DHT22;9069;52.044;7.472;2023-04-06T12:15:04;21.90;44.50
17887;DHT22;9069;52.044;7.472;2023-04-06T12:17:31;21.80;44.60
17887;DHT22;9069;52.044;7.472;2023-04-06T12:19:58;21.80;44.70
17887;DHT22;9069;52.044;7.472;2023-04-06T12:22:31;21.70;44.70
17887;DHT22;9069;52.044;7.472;2023-04-06T12:24:58;21.70;44.60
17887;DHT22;9069;52.044;7.472;2023-04-06T12:27:24;21.60;44.10
17887;DHT22;9069;52.044;7.472;2023-04-06T12:29:51;21.50;43.70
17887;DHT22;9069;52.044;7.472;2023-04-06T12:32:18;21.50;43.90
17887;DHT22;9069;52.044;7.472;2023-04-06T12:34:45;21.40;43.50
17887;DHT22;9069;52.044;7.472;2023-04-06T12:37:12;21.30;43.50
17887;DHT22;9069;52.044;7.472;2023-04-06T12:39:39;21.20;43.60
17887;DHT22;9069;52.044;7.472;2023-04-06T12:42:06;21.10;43.90
17887;DHT22;9069;52.044;7.472;2023-04-06T12:44:32;21.10;44.10
17887;DHT22;9069;52.044;7.472;2023-04-06T12:46:59;20.90;44.20
17887;DHT22;9069;52.044;7.472;2023-04-06T12:49:26;20.90;44.60
17887;DHT22;9069;52.044;7.472;2023-04-06T12:51:52;20.80;44.20
17887;DHT22;9069;52.044;7.472;2023-04-06T12:54:19;20.80;44.20
17887;DHT22;9069;52.044;7.472;2023-04-06T12:56:46;20.70;44.40
17887;DHT22;9069;52.044;7.472;2023-04-06T12:59:13;20.70;44.20
17887;DHT22;9069;52.044;7.472;2023-04-06T13:01:40;20.60;44.40
17887;DHT22;9069;52.044;7.472;2023-04-06T13:04:06;20.60;44.70
17887;DHT22;9069;52.044;7.472;2023-04-06T13:06:33;20.50;44.30
17887;DHT22;9069;52.044;7.472;2023-04-06T13:09:00;20.50;44.20
17887;DHT22;9069;52.044;7.472;2023-04-06T13:11:27;20.50;44.10
17887;DHT22;9069;52.044;7.472;2023-04-06T13:13:54;20.40;44.00
17887;DHT22;9069;52.044;7.472;2023-04-06T13:16:21;20.30;44.00
17887;DHT22;9069;52.044;7.472;2023-04-06T13:18:48;20.30;44.10
17887;DHT22;9069;52.044;7.472;2023-04-06T13:21:15;20.20;44.00
17887;DHT22;9069;52.044;7.472;2023-04-06T13:23:47;20.20;44.30
17887;DHT22;9069;52.044;7.472;2023-04-06T13:26:13;20.10;44.50
17887;DHT22;9069;52.044;7.472;2023-04-06T13:28:43;20.10;44.60
17887;DHT22;9069;52.044;7.472;2023-04-06T13:31:09;20.00;44.10
17887;DHT22;9069;52.044;7.472;2023-04-06T13:33:36;20.00;44.80
17887;DHT22;9069;52.044;7.472;2023-04-06T13:36:03;20.00;45.00
17887;DHT22;9069;52.044;7.472;2023-04-06T13:38:30;19.90;45.00
17887;DHT22;9069;52.044;7.472;2023-04-06T13:40:57;19.80;45.30
17887;DHT22;9069;52.044;7.472;2023-04-06T13:43:24;19.80;45.40
17887;DHT22;9069;52.044;7.472;2023-04-06T13:45:54;19.80;45.40
17887;DHT22;9069;52.044;7.472;2023-04-06T13:48:26;19.70;45.50
17887;DHT22;9069;52.044;7.472;2023-04-06T13:50:53;19.70;45.80
17887;DHT22;9069;52.044;7.472;2023-04-06T13:53:20;19.60;45.90
17887;DHT22;9069;52.044;7.472;2023-04-06T13:55:54;19.60;45.80
17887;DHT22;9069;52.044;7.472;2023-04-06T13:58:21;19.50;45.30
17887;DHT22;9069;52.044;7.472;2023-04-06T14:00:47;19.50;45.70
17887;DHT22;9069;52.044;7.472;2023-04-06T14:03:14;19.50;45.60
17887;DHT22;9069;52.044;7.472;2023-04-06T14:05:42;19.40;46.00
17887;DHT22;9069;52.044;7.472;2023-04-06T14:08:08;19.40;46.10
17887;DHT22;9069;52.044;7.472;2023-04-06T14:10:41;19.30;46.00
17887;DHT22;9069;52.044;7.472;2023-04-06T14:13:08;19.30;45.60
17887;DHT22;9069;52.044;7.472;2023-04-06T14:15:35;19.30;46.30
17887;DHT22;9069;52.044;7.472;2023-04-06T14:18:02;19.20;46.00
17887;DHT22;9069;52.044;7.472;2023-04-06T14:20:31;19.20;46.20
17887;DHT22;9069;52.044;7.472;2023-04-06T14:23:02;19.20;46.40
17887;DHT22;9069;52.044;7.472;2023-04-06T14:25:29;19.10;46.50
17887;DHT22;9069;52.044;7.472;2023-04-06T14:28:00;19.10;46.90
17887;DHT22;9069;52.044;7.472;2023-04-06T14:30:30;19.10;47.00
17887;DHT22;9069;52.044;7.472;2023-04-06T14:32:57;19.00;47.10
17887;DHT22;9069;52.044;7.472;2023-04-06T14:35:24;19.00;47.40
17887;DHT22;9069;52.044;7.472;2023-04-06T14:37:51;18.90;47.50
17887;DHT22;9069;52.044;7.472;2023-04-06T14:40:18;18.90;47.70
17887;DHT22;9069;52.044;7.472;2023-04-06T14:42:45;18.80;47.90
17887;DHT22;9069;52.044;7.472;2023-04-06T14:45:11;18.80;48.20
17887;DHT22;9069;52.044;7.472;2023-04-06T14:47:38;18.80;48.40
17887;DHT22;9069;52.044;7.472;2023-04-06T14:50:05;18.70;48.50
17887;DHT22;9069;52.044;7.472;2023-04-06T14:52:32;18.70;48.60
17887;DHT22;9069;52.044;7.472;2023-04-06T14:54:59;18.60;48.60
17887;DHT22;9069;52.044;7.472;2023-04-06T14:57:25;18.60;48.80
17887;DHT22;9069;52.044;7.472;2023-04-06T14:59:53;18.60;48.90
17887;DHT22;9069;52.044;7.472;2023-04-06T15:02:20;18.50;49.10
17887;DHT22;9069;52.044;7.472;2023-04-06T15:04:47;18.50;49.40
17887;DHT22;9069;52.044;7.472;2023-04-06T15:07:14;18.40;49.30
17887;DHT22;9069;52.044;7.472;2023-04-06T15:09:41;18.30;49.40
17887;DHT22;9069;52.044;7.472;2023-04-06T15:12:07;18.30;49.70
17887;DHT22;9069;52.044;7.472;2023-04-06T15:14:34;18.20;49.90
17887;DHT22;9069;52.044;7.472;2023-04-06T15:17:01;18.20;50.00
17887;DHT22;9069;52.044;7.472;2023-04-06T15:19:28;18.10;50.00
17887;DHT22;9069;52.044;7.472;2023-04-06T15:21:54;18.10;50.10
17887;DHT22;9069;52.044;7.472;2023-04-06T15:24:21;18.00;50.30
17887;DHT22;9069;52.044;7.472;2023-04-06T15:26:48;17.90;51.20
17887;DHT22;9069;52.044;7.472;2023-04-06T15:29:14;17.90;50.70
17887;DHT22;9069;52.044;7.472;2023-04-06T15:31:41;17.80;50.90
17887;DHT22;9069;52.044;7.472;2023-04-06T15:34:08;17.80;51.00
17887;DHT22;9069;52.044;7.472;2023-04-06T15:36:35;17.80;51.20
17887;DHT22;9069;52.044;7.472;2023-04-06T15:39:03;17.70;51.20
17887;DHT22;9069;52.044;7.472;2023-04-06T15:41:30;17.70;51.40
17887;DHT22;9069;52.044;7.472;2023-04-06T15:43:57;17.70;51.50
17887;DHT22;9069;52.044;7.472;2023-04-06T15:46:24;17.60;52.20
17887;DHT22;9069;52.044;7.472;2023-04-06T15:48:54;17.60;51.60
17887;DHT22;9069;52.044;7.472;2023-04-06T15:51:21;17.50;51.70
17887;DHT22;9069;52.044;7.472;2023-04-06T15:53:48;17.50;51.80
17887;DHT22;9069;52.044;7.472;2023-04-06T15:56:14;17.40;51.80
17887;DHT22;9069;52.044;7.472;2023-04-06T15:58:41;17.40;52.00
17887;DHT22;9069;52.044;7.472;2023-04-06T16:01:15;17.30;52.20
17887;DHT22;9069;52.044;7.472;2023-04-06T16:03:43;17.30;52.60
17887;DHT22;9069;52.044;7.472;2023-04-06T16:06:11;17.20;52.70
17887;DHT22;9069;52.044;7.472;2023-04-06T16:08:38;17.10;52.60
17887;DHT22;9069;52.044;7.472;2023-04-06T16:11:05;17.10;52.70
17887;DHT22;9069;52.044;7.472;2023-04-06T16:13:32;17.00;52.90
17887;DHT22;9069;52.044;7.472;2023-04-06T16:15:59;17.00;53.00
17887;DHT22;9069;52.044;7.472;2023-04-06T16:18:26;17.00;53.20
17887;DHT22;9069;52.044;7.472;2023-04-06T16:20:53;16.90;53.20
17887;DHT22;9069;52.044;7.472;2023-04-06T16:23:20;16.90;53.30